TAF KSSI
AMD KSSI 080122Z 0801/0824 07005KT 6SM BR VCSH SCT007 BKN035 FM080400 10004KT 4SM BR BKN003 OVC007 FM081000 21006KT P6SM SCT007 BKN035 FM081700 23009KT P6SM VCSH SCT020 BKN030 FM082100 27008KT 6SM SHRA BR OVC015=
METAR KSSI
WC KSSI
WS KSSI
WV KSSI